Time;durP1;ratioP1;P1;durP2;ratioP2;P2;SDS_P1;SDS_P2;PMS_P1;PMS_P2;Temp;Humidity;BMP_temperature;BMP_pressure;BME280_temperature;BME280_humidity;BME280_pressure;Samples;Min_cycle;Max_cycle;Signal;HPM_P1;HPM_P2
2021/10/06 00:00:35;;;;;;;31.02;27.70;;;;;;;10.90;100.00;99021.34;2116400;28;20236;-77
2021/10/06 00:01:36;;;;;;;37.35;27.42;;;;;;;10.88;100.00;99023.53;2116499;28;20593;-77
2021/10/06 00:02:38;;;;;;;32.53;27.93;;;;;;;10.88;100.00;99033.44;2116056;27;20201;-77
2021/10/06 00:03:39;;;;;;;33.15;27.50;;;;;;;10.85;100.00;99024.13;2116126;28;20244;-77
2021/10/06 00:04:41;;;;;;;33.73;28.23;;;;;;;10.85;100.00;99029.47;2116478;28;20253;-77
2021/10/06 00:05:44;;;;;;;35.28;28.27;;;;;;;10.98;100.00;99014.53;2115718;28;20201;-77
2021/10/06 00:06:47;;;;;;;38.47;27.52;;;;;;;10.99;100.00;99008.09;2115884;28;20192;-77
2021/10/06 00:07:50;;;;;;;32.75;28.88;;;;;;;11.03;100.00;99017.06;2116457;28;20196;-77
2021/10/06 00:08:51;;;;;;;33.63;28.00;;;;;;;10.99;100.00;99018.78;2115806;28;20593;-77
2021/10/06 00:09:53;;;;;;;35.05;29.35;;;;;;;10.94;100.00;99016.19;2107391;28;20221;-77
2021/10/06 00:10:53;;;;;;;33.28;28.70;;;;;;;10.95;100.00;99017.81;2116043;28;20193;-77
2021/10/06 00:11:55;;;;;;;36.00;29.13;;;;;;;10.92;100.00;99019.16;2115745;28;20193;-77
2021/10/06 00:12:56;;;;;;;37.17;27.48;;;;;;;10.91;100.00;99006.13;2115723;28;20249;-77
2021/10/06 00:13:59;;;;;;;36.70;29.50;;;;;;;10.91;100.00;99008.78;2116606;27;20704;-77
2021/10/06 00:15:02;;;;;;;34.03;29.73;;;;;;;10.89;100.00;99002.97;2116499;28;20204;-77
2021/10/06 00:17:49;;;;;;;32.55;28.92;;;;;;;10.93;100.00;99003.94;2116383;28;20169;-77
2021/10/06 00:18:50;;;;;;;39.25;28.85;;;;;;;10.88;100.00;98996.06;2115683;28;20192;-77
2021/10/06 00:19:54;;;;;;;33.50;29.17;;;;;;;10.84;100.00;98989.72;2107560;28;20675;-77
2021/10/06 00:20:56;;;;;;;36.75;27.80;;;;;;;10.81;100.00;99001.00;2115889;28;20207;-77
2021/10/06 00:21:58;;;;;;;32.55;28.02;;;;;;;10.82;100.00;98995.38;2107611;28;20233;-77
2021/10/06 00:23:00;;;;;;;34.88;29.60;;;;;;;10.79;100.00;98992.53;2107281;28;20204;-77
2021/10/06 00:24:02;;;;;;;31.52;28.13;;;;;;;10.78;100.00;98996.28;2115855;28;20667;-77
2021/10/06 00:25:03;;;;;;;34.35;28.42;;;;;;;10.74;100.00;98996.84;2116511;28;20585;-77
2021/10/06 00:26:07;;;;;;;32.97;28.25;;;;;;;10.73;100.00;98999.81;2116268;28;20212;-77
2021/10/06 00:27:09;;;;;;;31.55;27.90;;;;;;;10.71;100.00;99002.81;2116498;28;20220;-77
2021/10/06 00:28:10;;;;;;;33.40;28.25;;;;;;;10.71;100.00;99000.13;2115853;28;20214;-77
2021/10/06 00:29:11;;;;;;;30.98;27.67;;;;;;;10.72;100.00;99001.72;2115884;28;20193;-77
2021/10/06 00:30:13;;;;;;;32.20;27.23;;;;;;;10.71;100.00;98997.47;2116309;28;20188;-77
2021/10/06 00:31:14;;;;;;;33.35;28.02;;;;;;;10.72;100.00;99004.38;2116354;28;20200;-77
2021/10/06 00:32:15;;;;;;;30.70;27.27;;;;;;;10.73;100.00;99007.84;2115540;28;20188;-77
2021/10/06 00:33:17;;;;;;;35.33;28.58;;;;;;;10.73;100.00;99013.97;2115558;28;20741;-77
2021/10/06 00:34:21;;;;;;;31.35;27.13;;;;;;;10.72;100.00;99008.91;2115528;28;20679;-77
2021/10/06 00:35:22;;;;;;;32.60;29.10;;;;;;;10.73;100.00;99010.50;2107682;28;20197;-77
2021/10/06 00:36:23;;;;;;;36.15;28.88;;;;;;;10.74;100.00;99002.19;2115531;28;20275;-77
2021/10/06 00:37:25;;;;;;;41.20;28.57;;;;;;;10.70;100.00;98995.88;2116466;28;20220;-77
2021/10/06 00:38:27;;;;;;;37.33;29.02;;;;;;;10.71;100.00;99012.69;2115468;28;20220;-77
2021/10/06 00:39:29;;;;;;;31.58;28.33;;;;;;;10.72;100.00;99014.25;2107138;28;20239;-77
2021/10/06 00:40:30;;;;;;;33.65;28.23;;;;;;;10.71;100.00;99013.47;2115863;28;20189;-77
2021/10/06 00:41:32;;;;;;;33.83;29.20;;;;;;;10.67;100.00;99017.81;2116182;28;20209;-77
2021/10/06 00:42:33;;;;;;;43.45;29.48;;;;;;;10.67;100.00;99020.47;2115492;28;20674;-77
2021/10/06 00:43:35;;;;;;;39.50;30.50;;;;;;;10.70;100.00;99014.56;2107051;28;20675;-77
2021/10/06 00:44:37;;;;;;;35.97;27.58;;;;;;;10.71;100.00;99018.81;2115557;28;20673;-77
2021/10/06 00:45:38;;;;;;;35.03;28.48;;;;;;;10.69;100.00;99013.00;2115342;28;20207;-77
2021/10/06 00:46:39;;;;;;;38.35;29.65;;;;;;;10.73;100.00;99013.16;2115007;28;20193;-77
2021/10/06 00:47:41;;;;;;;35.03;28.70;;;;;;;10.71;100.00;99002.81;2115564;28;20220;-77
2021/10/06 00:48:42;;;;;;;32.45;28.55;;;;;;;10.73;100.00;99007.84;2116115;28;20651;-77
2021/10/06 00:49:44;;;;;;;31.20;27.83;;;;;;;10.76;100.00;99000.00;2115650;27;20563;-77
2021/10/06 00:50:45;;;;;;;40.33;28.40;;;;;;;10.78;100.00;99006.94;2107049;28;20879;-77
2021/10/06 00:51:46;;;;;;;34.97;28.60;;;;;;;10.80;100.00;99005.56;2115674;27;20193;-77
2021/10/06 00:52:48;;;;;;;34.28;28.33;;;;;;;10.81;100.00;99001.78;2106995;28;20444;-77
2021/10/06 00:53:51;;;;;;;34.97;28.65;;;;;;;10.83;100.00;99004.16;2115388;28;20247;-77
2021/10/06 00:54:51;;;;;;;38.83;28.77;;;;;;;10.82;100.00;98991.91;2115452;28;20601;-77
2021/10/06 00:55:54;;;;;;;33.03;26.30;;;;;;;10.84;100.00;98997.72;2116064;28;20243;-77
2021/10/06 00:56:54;;;;;;;31.95;26.95;;;;;;;10.84;100.00;98995.06;2115243;28;20212;-77
2021/10/06 00:57:56;;;;;;;34.33;27.33;;;;;;;10.85;100.00;98992.09;2106902;28;20288;-77
2021/10/06 00:58:57;;;;;;;36.13;29.85;;;;;;;10.82;100.00;98991.91;2115610;27;20208;-77
2021/10/06 00:59:59;;;;;;;34.87;27.77;;;;;;;10.83;100.00;98996.94;2115350;28;20662;-77
2021/10/06 01:01:00;;;;;;;31.75;28.02;;;;;;;10.82;100.00;98992.69;2115311;28;20197;-77
2021/10/06 01:02:02;;;;;;;31.30;26.80;;;;;;;10.83;100.00;98991.59;2115483;28;20191;-77
2021/10/06 01:03:03;;;;;;;31.15;27.95;;;;;;;10.83;100.00;98996.94;2115296;28;20237;-77
2021/10/06 01:04:05;;;;;;;39.90;27.98;;;;;;;10.83;100.00;98993.47;2115397;28;20674;-77
2021/10/06 01:05:08;;;;;;;33.67;28.30;;;;;;;10.85;100.00;98988.63;2115951;28;20201;-77
2021/10/06 01:06:09;;;;;;;30.98;26.88;;;;;;;10.86;100.00;98998.22;2115998;28;20717;-77
2021/10/06 01:07:10;;;;;;;28.58;25.40;;;;;;;10.91;100.00;98996.25;2115599;27;20587;-77
2021/10/06 01:08:12;;;;;;;30.57;25.87;;;;;;;10.96;100.00;99000.69;2115641;28;20196;-77
2021/10/06 01:09:14;;;;;;;28.92;25.80;;;;;;;11.02;100.00;98997.59;2115500;28;20209;-77
2021/10/06 01:10:17;;;;;;;27.70;24.70;;;;;;;11.07;100.00;98994.03;2115205;28;20229;-77
2021/10/06 01:11:19;;;;;;;28.33;25.42;;;;;;;11.11;100.00;98995.00;2115948;28;20255;-76
2021/10/06 01:12:21;;;;;;;29.05;25.90;;;;;;;11.13;100.00;98992.84;2115232;28;20217;-77
2021/10/06 01:13:22;;;;;;;29.05;25.73;;;;;;;11.19;100.00;98996.19;2115362;28;20185;-77
2021/10/06 01:14:25;;;;;;;31.50;24.70;;;;;;;11.23;100.00;98995.28;2116192;28;20220;-77
2021/10/06 01:15:26;;;;;;;30.58;25.70;;;;;;;11.25;100.00;98990.44;2115903;28;20552;-77
2021/10/06 01:16:28;;;;;;;29.17;24.75;;;;;;;11.32;100.00;98988.13;2115864;28;20205;-77
2021/10/06 01:17:32;;;;;;;32.35;25.17;;;;;;;11.36;100.00;98990.19;2115964;28;20564;-77
2021/10/06 01:18:33;;;;;;;28.65;25.45;;;;;;;11.38;100.00;98990.66;2115194;28;20208;-77
2021/10/06 01:19:35;;;;;;;28.00;24.17;;;;;;;11.41;100.00;98995.44;2106788;28;20193;-77
2021/10/06 01:20:36;;;;;;;25.85;23.38;;;;;;;11.43;100.00;98986.00;2115347;28;20196;-77
2021/10/06 01:21:39;;;;;;;29.27;26.00;;;;;;;11.45;100.00;98983.03;2116133;28;20234;-77
2021/10/06 01:22:39;;;;;;;29.13;26.10;;;;;;;11.46;100.00;98985.38;2115858;28;20193;-77
2021/10/06 01:23:43;;;;;;;29.60;25.23;;;;;;;11.47;100.00;98981.66;2115923;28;20216;-77
2021/10/06 01:24:45;;;;;;;27.67;24.95;;;;;;;11.53;100.00;98985.75;2115186;28;20204;-77
2021/10/06 01:25:47;;;;;;;29.83;26.48;;;;;;;11.53;100.00;98984.97;2106711;28;20259;-78
2021/10/06 01:26:48;;;;;;;27.48;24.63;;;;;;;11.54;100.00;98984.66;2115213;28;20242;-77
2021/10/06 01:27:50;;;;;;;28.77;25.33;;;;;;;11.57;100.00;98983.28;2115162;28;20188;-77
2021/10/06 01:28:53;;;;;;;27.70;24.80;;;;;;;11.59;100.00;98986.44;2106935;28;20228;-77
2021/10/06 01:29:54;;;;;;;28.10;25.23;;;;;;;11.60;100.00;98983.47;2115419;28;20576;-77
2021/10/06 01:30:56;;;;;;;27.10;24.43;;;;;;;11.65;100.00;98984.44;2115797;28;20185;-77
2021/10/06 01:31:58;;;;;;;28.42;25.20;;;;;;;11.68;100.00;98978.47;2116049;28;20570;-77
2021/10/06 01:32:59;;;;;;;25.83;23.20;;;;;;;11.85;100.00;98975.94;2115775;28;20189;-77
2021/10/06 01:34:01;;;;;;;27.43;24.13;;;;;;;12.02;100.00;98969.91;2115365;27;20193;-77
2021/10/06 01:35:03;;;;;;;27.08;24.20;;;;;;;12.03;100.00;98966.13;2115173;28;20180;-77
2021/10/06 01:36:05;;;;;;;25.15;22.45;;;;;;;12.03;100.00;98976.81;2115034;28;20678;-77
2021/10/06 01:37:07;;;;;;;27.52;24.73;;;;;;;12.03;100.00;98987.53;2106575;28;20206;-77
2021/10/06 01:38:09;;;;;;;26.80;23.90;;;;;;;11.99;100.00;98982.00;2106913;28;20206;-77
2021/10/06 01:39:11;;;;;;;28.17;25.10;;;;;;;11.99;100.00;98987.34;2115195;28;20181;-77
2021/10/06 01:40:15;;;;;;;29.17;26.38;;;;;;;11.98;100.00;98990.31;2115838;28;20189;-77
2021/10/06 01:41:16;;;;;;;27.90;24.92;;;;;;;11.95;100.00;98991.72;2115361;28;20197;-77
2021/10/06 01:42:17;;;;;;;27.23;24.63;;;;;;;11.96;100.00;98995.97;2115120;28;20216;-77
2021/10/06 01:43:18;;;;;;;29.10;25.48;;;;;;;11.94;100.00;98994.72;2115667;28;20188;-77
2021/10/06 01:44:20;;;;;;;29.67;24.83;;;;;;;11.96;100.00;98998.66;2115806;28;20181;-77
2021/10/06 01:45:23;;;;;;;31.27;25.50;;;;;;;11.95;100.00;98991.72;2115682;28;20182;-77
2021/10/06 01:46:25;;;;;;;27.58;24.98;;;;;;;11.95;100.00;98990.94;2114906;28;20275;-77
2021/10/06 01:47:27;;;;;;;27.73;24.60;;;;;;;11.97;100.00;98999.44;2115325;28;20193;-77
2021/10/06 01:48:29;;;;;;;27.17;24.50;;;;;;;11.97;100.00;98994.09;2115633;28;20181;-77
2021/10/06 01:49:29;;;;;;;27.60;24.88;;;;;;;11.95;100.00;98996.28;2115678;28;20196;-77
2021/10/06 01:50:31;;;;;;;27.30;24.50;;;;;;;12.02;100.00;99002.78;2115859;28;20181;-77
2021/10/06 01:51:32;;;;;;;28.85;25.38;;;;;;;12.08;100.00;99000.78;2115856;28;20189;-77
2021/10/06 01:52:38;;;;;;;30.67;25.57;;;;;;;12.10;100.00;98998.56;2114940;28;20299;-77
2021/10/06 01:53:40;;;;;;;28.27;24.27;;;;;;;12.14;100.00;99002.19;2115379;28;20173;-77
2021/10/06 01:54:41;;;;;;;29.67;25.90;;;;;;;12.20;100.00;99000.19;2115615;28;20264;-77
2021/10/06 01:55:43;;;;;;;30.52;25.17;;;;;;;12.15;100.00;99001.88;2114909;28;20193;-77
2021/10/06 01:56:44;;;;;;;26.80;24.08;;;;;;;12.21;100.00;99005.22;2106537;28;20217;-77
2021/10/06 01:57:45;;;;;;;28.00;25.17;;;;;;;12.24;100.00;98995.78;2114469;28;20188;-77
2021/10/06 01:58:47;;;;;;;31.17;24.47;;;;;;;12.21;100.00;98999.88;2115367;28;20181;-77
2021/10/06 01:59:51;;;;;;;29.13;24.92;;;;;;;12.20;100.00;98998.31;2115081;28;20204;-77
2021/10/06 02:00:53;;;;;;;27.55;24.60;;;;;;;12.20;100.00;99002.88;2115010;28;20181;-77
2021/10/06 02:01:54;;;;;;;26.42;23.80;;;;;;;12.18;100.00;98999.72;2115167;27;20563;-77
2021/10/06 02:02:55;;;;;;;26.70;23.93;;;;;;;12.15;100.00;99003.78;2106102;28;20204;-77
2021/10/06 02:03:56;;;;;;;27.70;24.52;;;;;;;12.13;100.00;98998.75;2114989;28;20200;-77
2021/10/06 02:04:58;;;;;;;28.27;24.50;;;;;;;12.11;100.00;99005.50;2115143;28;20189;-77
2021/10/06 02:05:59;;;;;;;28.85;24.10;;;;;;;12.11;100.00;99005.50;2106574;28;20197;-77
2021/10/06 02:07:01;;;;;;;27.13;24.43;;;;;;;12.12;100.00;99001.72;2114829;28;20659;-77
2021/10/06 02:08:05;;;;;;;28.85;23.90;;;;;;;12.11;100.00;99003.59;2114970;28;20659;-77
2021/10/06 02:09:06;;;;;;;27.42;23.80;;;;;;;12.11;100.00;99008.16;2114816;28;20655;-77
2021/10/06 02:10:08;;;;;;;30.30;24.05;;;;;;;12.09;100.00;99005.03;2106304;28;20225;-77
2021/10/06 02:11:11;;;;;;;27.65;23.33;;;;;;;12.08;100.00;99006.13;2115077;28;20188;-77
2021/10/06 02:12:12;;;;;;;27.30;24.42;;;;;;;12.09;100.00;99005.81;2115124;27;20291;-77
2021/10/06 02:13:14;;;;;;;27.05;24.30;;;;;;;12.09;100.00;99008.47;2106079;28;20255;-77
2021/10/06 02:14:17;;;;;;;26.67;23.98;;;;;;;12.09;100.00;99007.69;2114743;28;20307;-77
2021/10/06 02:15:18;;;;;;;26.95;23.25;;;;;;;12.08;100.00;99009.59;2106658;28;20618;-77
2021/10/06 02:16:20;;;;;;;27.23;24.43;;;;;;;12.08;100.00;99003.44;2114981;28;20257;-77
2021/10/06 02:17:20;;;;;;;29.67;24.63;;;;;;;12.08;100.00;99009.59;2114976;27;20225;-77
2021/10/06 02:18:22;;;;;;;28.43;24.83;;;;;;;12.08;100.00;99016.81;2114933;28;20271;-77
2021/10/06 02:19:23;;;;;;;28.35;25.33;;;;;;;12.08;100.00;99009.59;2115529;28;20189;-77
2021/10/06 02:20:25;;;;;;;28.60;25.10;;;;;;;12.19;100.00;99007.44;2114805;28;20236;-77
2021/10/06 02:21:26;;;;;;;28.85;25.13;;;;;;;12.15;100.00;99006.44;2114896;28;20245;-77
2021/10/06 02:22:28;;;;;;;28.05;25.08;;;;;;;12.20;100.00;98998.31;2115572;28;20239;-77
2021/10/06 02:23:30;;;;;;;26.88;23.70;;;;;;;12.27;100.00;98989.84;2114750;28;20196;-77
2021/10/06 02:24:31;;;;;;;28.30;25.60;;;;;;;12.29;100.00;98988.44;2114925;28;20562;-77
2021/10/06 02:25:32;;;;;;;29.08;25.45;;;;;;;12.23;100.00;98986.97;2115671;28;20189;-75
2021/10/06 02:26:34;;;;;;;26.70;24.00;;;;;;;12.16;100.00;98986.63;2115478;28;20267;-76
2021/10/06 02:27:35;;;;;;;28.63;25.33;;;;;;;12.16;100.00;98987.44;2115633;28;20237;-77
2021/10/06 02:28:38;;;;;;;28.83;25.93;;;;;;;12.14;100.00;98989.63;2115397;28;20189;-77
2021/10/06 02:29:39;;;;;;;27.55;25.02;;;;;;;12.13;100.00;98989.94;2115421;28;20284;-78
2021/10/06 02:30:41;;;;;;;28.40;25.67;;;;;;;12.10;100.00;98986.00;2114774;28;20200;-77
2021/10/06 02:31:42;;;;;;;28.45;25.77;;;;;;;12.18;100.00;98992.47;2115049;28;20543;-77
2021/10/06 02:32:43;;;;;;;30.00;26.90;;;;;;;12.20;100.00;98992.16;2115484;28;20184;-77
2021/10/06 02:33:44;;;;;;;29.05;26.35;;;;;;;12.14;100.00;98984.25;2114744;28;20200;-77
2021/10/06 02:34:48;;;;;;;27.93;25.33;;;;;;;12.18;100.00;98995.16;2106245;28;20251;-77
2021/10/06 02:35:49;;;;;;;28.77;25.85;;;;;;;12.16;100.00;98990.13;2106908;28;20708;-77
2021/10/06 02:36:52;;;;;;;26.53;24.13;;;;;;;12.23;100.00;98981.63;2114800;28;20555;-77
2021/10/06 02:37:52;;;;;;;28.77;26.08;;;;;;;12.19;100.00;98975.34;2115420;28;20488;-77
2021/10/06 02:38:55;;;;;;;28.50;25.70;;;;;;;12.20;100.00;98986.81;2114769;28;20282;-76
2021/10/06 02:39:56;;;;;;;30.00;26.88;;;;;;;12.22;100.00;98990.75;2114736;28;20193;-75
2021/10/06 02:40:58;;;;;;;30.33;27.30;;;;;;;12.21;100.00;98983.84;2114983;28;20295;-74
2021/10/06 02:41:59;;;;;;;30.63;27.50;;;;;;;12.14;100.00;98983.47;2114981;28;20189;-74
2021/10/06 02:43:01;;;;;;;30.57;27.40;;;;;;;12.13;100.00;98984.56;2115388;28;20216;-74
2021/10/06 02:44:03;;;;;;;30.27;27.27;;;;;;;12.09;100.00;98994.31;2114848;28;20453;-75
2021/10/06 02:45:06;;;;;;;29.25;26.60;;;;;;;12.06;100.00;98994.91;2114884;28;20189;-75
2021/10/06 02:46:06;;;;;;;29.20;26.40;;;;;;;12.03;100.00;98984.84;2115332;28;20676;-75
2021/10/06 02:47:08;;;;;;;29.97;26.80;;;;;;;12.01;100.00;98987.84;2115404;28;20704;-76
2021/10/06 02:48:09;;;;;;;28.88;26.00;;;;;;;12.02;100.00;98983.28;2114695;28;20196;-77
2021/10/06 02:49:11;;;;;;;28.07;25.37;;;;;;;12.04;100.00;98981.84;2114695;28;20292;-77
2021/10/06 02:50:16;;;;;;;29.98;26.83;;;;;;;12.02;100.00;98981.38;2106360;28;20692;-77
2021/10/06 02:51:18;;;;;;;31.17;28.05;;;;;;;11.98;100.00;98977.72;2106674;28;20284;-77
2021/10/06 02:52:18;;;;;;;28.73;25.90;;;;;;;11.96;100.00;98973.78;2114654;28;20581;-77
2021/10/06 02:53:20;;;;;;;29.80;26.80;;;;;;;11.95;100.00;98980.25;2114752;28;20298;-77
2021/10/06 02:54:22;;;;;;;31.05;27.98;;;;;;;11.92;100.00;98978.19;2114724;28;20204;-77
2021/10/06 02:55:25;;;;;;;29.58;26.65;;;;;;;11.97;100.00;98981.50;2106274;28;20189;-77
2021/10/06 02:56:27;;;;;;;29.45;26.65;;;;;;;11.93;100.00;98980.56;2114849;28;20189;-76
2021/10/06 02:57:30;;;;;;;29.45;26.63;;;;;;;11.90;100.00;98978.47;2114539;28;20217;-76
2021/10/06 02:58:31;;;;;;;30.98;27.15;;;;;;;11.87;100.00;98985.22;2114877;28;20276;-77
2021/10/06 02:59:33;;;;;;;29.77;26.83;;;;;;;11.86;100.00;98983.66;2114685;28;20201;-76
2021/10/06 03:00:35;;;;;;;30.88;27.98;;;;;;;11.86;100.00;98994.34;2106482;28;20236;-77
2021/10/06 03:01:35;;;;;;;31.58;27.70;;;;;;;11.85;100.00;98989.31;2114786;28;20200;-76
2021/10/06 03:02:40;;;;;;;30.87;27.77;;;;;;;11.85;100.00;98998.13;2114640;28;20216;-76
2021/10/06 03:03:42;;;;;;;31.85;28.50;;;;;;;11.84;100.00;99001.09;2114842;28;20218;-77
2021/10/06 03:04:44;;;;;;;29.65;26.60;;;;;;;11.84;100.00;98998.44;2114635;28;20288;-77
2021/10/06 03:05:44;;;;;;;30.98;27.45;;;;;;;11.81;100.00;98997.13;2114779;28;20204;-76
2021/10/06 03:06:46;;;;;;;29.07;26.23;;;;;;;11.81;100.00;98991.78;2114261;28;20748;-76
2021/10/06 03:07:47;;;;;;;30.23;27.33;;;;;;;11.79;100.00;98996.63;2114696;28;20193;-76
2021/10/06 03:08:48;;;;;;;30.40;26.20;;;;;;;11.81;100.00;99002.47;2114937;28;20239;-76
2021/10/06 03:09:51;;;;;;;30.38;27.30;;;;;;;11.80;100.00;99002.78;2107353;28;20229;-77
2021/10/06 03:10:53;;;;;;;30.83;27.60;;;;;;;11.79;100.00;99011.88;2108288;28;20205;-76
2021/10/06 03:11:54;;;;;;;29.67;26.65;;;;;;;11.77;100.00;99006.06;2108109;28;20208;-77
2021/10/06 03:12:56;;;;;;;30.60;27.70;;;;;;;11.77;100.00;99006.84;2107790;28;20288;-76
2021/10/06 03:13:56;;;;;;;31.73;28.35;;;;;;;11.76;100.00;99007.94;2116247;28;20203;-77
2021/10/06 03:14:58;;;;;;;30.60;27.37;;;;;;;11.74;100.00;99006.66;2116428;28;20211;-77
2021/10/06 03:16:00;;;;;;;30.73;27.48;;;;;;;11.74;100.00;99012.03;2116866;28;20184;-77
2021/10/06 03:17:06;;;;;;;31.23;27.92;;;;;;;11.74;100.00;99010.13;2116400;27;20205;-77
2021/10/06 03:18:08;;;;;;;32.35;27.73;;;;;;;11.70;100.00;99009.16;2108353;28;20792;-77
2021/10/06 03:19:09;;;;;;;32.33;27.95;;;;;;;11.74;100.00;99012.03;2107872;28;20276;-77
2021/10/06 03:20:12;;;;;;;31.20;26.97;;;;;;;11.73;100.00;99005.88;2116228;28;20188;-77
2021/10/06 03:21:14;;;;;;;35.95;28.40;;;;;;;12.00;100.00;98999.63;2116461;27;20659;-77
2021/10/06 03:22:15;;;;;;;31.33;27.92;;;;;;;12.05;100.00;98998.69;2107631;28;20201;-77
2021/10/06 03:23:16;;;;;;;37.13;27.10;;;;;;;12.11;100.00;99002.81;2116414;28;20230;-77
2021/10/06 03:24:18;;;;;;;33.53;28.70;;;;;;;12.11;100.00;99008.16;2117021;28;20185;-77
2021/10/06 03:25:25;;;;;;;38.33;29.08;;;;;;;12.07;100.00;99010.66;2116101;28;20391;-77
2021/10/06 03:26:26;;;;;;;35.25;28.02;;;;;;;12.08;100.00;99008.78;2108325;28;20587;-77
2021/10/06 03:27:28;;;;;;;33.13;28.00;;;;;;;12.04;100.00;99010.50;2107642;28;20310;-77
2021/10/06 03:28:28;;;;;;;32.45;27.45;;;;;;;11.99;100.00;99018.63;2116165;28;20193;-77
2021/10/06 03:29:30;;;;;;;33.80;28.17;;;;;;;11.97;100.00;99015.47;2116852;28;20651;-77
2021/10/06 03:30:34;;;;;;;36.60;29.17;;;;;;;11.96;100.00;99020.03;2116775;28;20657;-77
2021/10/06 03:31:36;;;;;;;33.88;28.42;;;;;;;11.96;100.00;99025.38;2115950;28;20221;-78
2021/10/06 03:32:38;;;;;;;36.45;28.33;;;;;;;12.04;100.00;99021.97;2107548;28;20200;-77
2021/10/06 03:33:38;;;;;;;38.63;30.20;;;;;;;12.05;100.00;99025.44;2116074;28;20196;-77
2021/10/06 03:34:40;;;;;;;35.27;28.73;;;;;;;12.11;100.00;99027.69;2107891;28;20229;-77
2021/10/06 03:35:41;;;;;;;33.15;29.27;;;;;;;12.08;100.00;99032.88;2107606;28;20250;-77
2021/10/06 03:36:43;;;;;;;38.97;29.47;;;;;;;12.15;100.00;99039.31;2107853;28;20194;-77
2021/10/06 03:37:44;;;;;;;33.00;27.80;;;;;;;12.21;100.00;99040.00;2107533;28;20217;-77
2021/10/06 03:38:47;;;;;;;32.53;27.70;;;;;;;12.25;100.00;99030.28;2107646;28;20205;-75
2021/10/06 03:39:48;;;;;;;36.22;28.10;;;;;;;12.24;100.00;99025.22;2115620;28;20263;-75
2021/10/06 03:40:51;;;;;;;31.10;27.70;;;;;;;12.21;100.00;99023.94;2116059;28;20279;-74
2021/10/06 03:41:52;;;;;;;30.45;27.25;;;;;;;12.18;100.00;99027.25;2115961;28;20264;-75
2021/10/06 03:42:54;;;;;;;32.20;28.00;;;;;;;12.11;100.00;99026.88;2116063;28;20193;-75
2021/10/06 03:43:54;;;;;;;33.95;27.70;;;;;;;12.12;100.00;99033.81;2116633;27;20204;-75
2021/10/06 03:45:00;;;;;;;34.20;27.77;;;;;;;12.09;100.00;99023.75;2115920;28;20305;-75
2021/10/06 03:46:02;;;;;;;31.50;27.20;;;;;;;12.07;100.00;99028.59;2116040;28;20253;-75
2021/10/06 03:47:03;;;;;;;31.83;26.65;;;;;;;12.03;100.00;99025.75;2116681;27;20273;-77
2021/10/06 03:48:06;;;;;;;29.73;26.57;;;;;;;12.03;100.00;99031.09;2116712;28;20192;-77
2021/10/06 03:49:06;;;;;;;34.95;27.05;;;;;;;12.03;100.00;99036.44;2115937;28;20197;-77
2021/10/06 03:50:10;;;;;;;31.53;28.27;;;;;;;12.03;100.00;99033.78;2116028;28;20690;-77
2021/10/06 03:51:11;;;;;;;32.65;28.33;;;;;;;12.02;100.00;99036.75;2116514;28;20192;-77
2021/10/06 03:52:13;;;;;;;31.43;27.77;;;;;;;12.00;100.00;99038.94;2115882;28;20192;-77
2021/10/06 03:53:14;;;;;;;33.30;27.70;;;;;;;12.00;100.00;99041.63;2116117;28;20663;-77
2021/10/06 03:54:15;;;;;;;31.97;28.57;;;;;;;11.98;100.00;99038.44;2116127;28;20592;-77
2021/10/06 03:55:17;;;;;;;33.00;28.85;;;;;;;11.99;100.00;99040.03;2115984;28;20193;-77
2021/10/06 03:56:19;;;;;;;31.38;28.15;;;;;;;12.02;100.00;99042.88;2116701;28;20185;-77
2021/10/06 03:57:21;;;;;;;32.10;28.70;;;;;;;12.01;100.00;99043.19;2116424;28;20200;-77
2021/10/06 03:58:22;;;;;;;36.33;28.92;;;;;;;11.99;100.00;99053.38;2115844;28;20249;-77
2021/10/06 03:59:25;;;;;;;32.30;28.93;;;;;;;11.93;100.00;99044.72;2107418;28;20243;-77
2021/10/06 04:00:27;;;;;;;32.08;28.50;;;;;;;11.95;100.00;99047.09;2115892;28;20758;-77
2021/10/06 04:01:29;;;;;;;32.40;28.58;;;;;;;11.91;100.00;99049.59;2115840;28;20189;-77
2021/10/06 04:02:30;;;;;;;35.63;29.67;;;;;;;11.93;100.00;99054.63;2115986;28;20661;-78
2021/10/06 04:03:32;;;;;;;32.45;28.67;;;;;;;11.92;100.00;99061.06;2116506;28;20221;-77
2021/10/06 04:04:33;;;;;;;32.75;29.33;;;;;;;11.89;100.00;99057.88;2115829;28;20204;-77
2021/10/06 04:05:36;;;;;;;35.33;29.33;;;;;;;11.88;100.00;99061.66;2107385;28;20194;-77
2021/10/06 04:06:38;;;;;;;39.25;30.00;;;;;;;11.85;100.00;99059.59;2108139;28;20202;-78
2021/10/06 04:07:40;;;;;;;33.33;29.23;;;;;;;11.86;100.00;99065.75;2106868;28;20201;-78
2021/10/06 04:08:41;;;;;;;37.40;30.13;;;;;;;11.84;100.00;99067.94;2115695;28;20212;-78
2021/10/06 04:09:43;;;;;;;31.53;28.30;;;;;;;11.83;100.00;99064.47;2115803;28;20307;-78
2021/10/06 04:10:44;;;;;;;34.70;29.60;;;;;;;11.84;100.00;99070.59;2115823;28;20667;-78
2021/10/06 04:11:47;;;;;;;32.83;29.27;;;;;;;11.84;100.00;99078.63;2107282;28;20563;-78
2021/10/06 04:12:47;;;;;;;34.10;29.55;;;;;;;11.82;100.00;99072.81;2107686;28;20201;-77
2021/10/06 04:13:51;;;;;;;33.90;30.23;;;;;;;11.83;100.00;99074.38;2107240;28;20217;-77
2021/10/06 04:14:52;;;;;;;36.63;29.70;;;;;;;11.82;100.00;99078.94;2115699;28;20296;-77
2021/10/06 04:15:54;;;;;;;35.30;29.30;;;;;;;11.80;100.00;99069.63;2116040;28;20185;-77
2021/10/06 04:16:55;;;;;;;31.83;28.42;;;;;;;11.80;100.00;99075.75;2115729;28;20259;-77
2021/10/06 04:17:56;;;;;;;34.47;30.13;;;;;;;11.80;100.00;99073.06;2115608;28;20224;-77
2021/10/06 04:18:57;;;;;;;33.00;29.45;;;;;;;11.81;100.00;99073.88;2107203;28;20671;-77
2021/10/06 04:20:01;;;;;;;38.37;29.93;;;;;;;11.79;100.00;99068.81;2115881;28;20568;-77
2021/10/06 04:21:02;;;;;;;34.72;29.55;;;;;;;11.80;100.00;99080.31;2114776;28;20296;-77
2021/10/06 04:22:04;;;;;;;35.70;29.60;;;;;;;11.79;100.00;99073.34;2115883;28;20191;-77
2021/10/06 04:23:05;;;;;;;35.63;30.05;;;;;;;11.77;100.00;99076.34;2115625;28;20197;-77
2021/10/06 04:24:06;;;;;;;34.50;29.58;;;;;;;11.77;100.00;99081.69;2115707;28;20199;-77
2021/10/06 04:25:10;;;;;;;33.20;28.67;;;;;;;11.77;100.00;99076.34;2115644;28;20689;-77
2021/10/06 04:26:10;;;;;;;36.53;30.80;;;;;;;11.77;100.00;99078.22;2115634;28;20925;-77
2021/10/06 04:27:14;;;;;;;33.33;29.60;;;;;;;11.76;100.00;99079.31;2107430;28;20578;-77
2021/10/06 04:28:15;;;;;;;36.17;30.17;;;;;;;11.73;100.00;99080.72;2107299;28;20208;-77
2021/10/06 04:29:16;;;;;;;34.67;30.23;;;;;;;11.75;100.00;99088.44;2107159;28;20185;-77
2021/10/06 04:30:17;;;;;;;34.03;30.08;;;;;;;11.75;100.00;99099.13;2115690;28;20675;-78
2021/10/06 04:31:19;;;;;;;36.80;29.90;;;;;;;11.74;100.00;99103.69;2115530;28;20590;-77
2021/10/06 04:32:20;;;;;;;35.35;29.90;;;;;;;11.73;100.00;99102.09;2115635;28;20193;-77
2021/10/06 04:33:22;;;;;;;35.87;30.37;;;;;;;11.73;100.00;99102.09;2116419;28;20276;-77
2021/10/06 04:34:23;;;;;;;38.92;30.30;;;;;;;11.72;100.00;99103.16;2116380;28;20670;-77
2021/10/06 04:35:26;;;;;;;36.30;29.63;;;;;;;11.70;100.00;99097.34;2115853;28;20205;-77
2021/10/06 04:36:28;;;;;;;40.70;29.52;;;;;;;11.72;100.00;99102.38;2107100;28;20663;-77
2021/10/06 04:37:30;;;;;;;34.42;29.05;;;;;;;11.71;100.00;99106.16;2115498;28;20185;-77
2021/10/06 04:38:31;;;;;;;43.28;29.60;;;;;;;11.70;100.00;99100.00;2116185;28;20246;-77
2021/10/06 04:39:32;;;;;;;35.38;29.20;;;;;;;11.72;100.00;99099.72;2116197;28;20196;-75
2021/10/06 04:40:36;;;;;;;32.90;29.30;;;;;;;11.71;100.00;99096.25;2115490;28;20698;-74
2021/10/06 04:41:37;;;;;;;38.10;29.63;;;;;;;11.71;100.00;99101.59;2115696;28;20519;-75
2021/10/06 04:42:40;;;;;;;33.43;28.27;;;;;;;11.80;100.00;99091.00;2116182;28;20212;-74